sensor_id;sensor_type;location;lat;lon;timestamp;pressure;altitude;pressure_sealevel;temperature;humidity
48210;BME280;33999;52.252;9.616;2022-08-01T00:00:24;100383.97;;;18.28;100.00
48210;BME280;33999;52.252;9.616;2022-08-01T00:03:26;100385.69;;;18.29;100.00
48210;BME280;33999;52.252;9.616;2022-08-01T00:06:28;100384.66;;;18.30;100.00
48210;BME280;33999;52.252;9.616;2022-08-01T00:09:30;100386.69;;;18.28;100.00
48210;BME280;33999;52.252;9.616;2022-08-01T00:12:32;100382.97;;;18.29;100.00
48210;BME280;33999;52.252;9.616;2022-08-01T00:15:34;100380.94;;;18.31;100.00
48210;BME280;33999;52.252;9.616;2022-08-01T00:18:35;100380.06;;;18.30;100.00
48210;BME280;33999;52.252;9.616;2022-08-01T00:21:38;100380.41;;;18.27;100.00
48210;BME280;33999;52.252;9.616;2022-08-01T00:24:52;100380.41;;;18.27;100.00
48210;BME280;33999;52.252;9.616;2022-08-01T00:27:54;100381.25;;;18.28;100.00
48210;BME280;33999;52.252;9.616;2022-08-01T00:30:55;100388.56;;;18.27;100.00
48210;BME280;33999;52.252;9.616;2022-08-01T00:33:57;100385.84;;;18.27;100.00
48210;BME280;33999;52.252;9.616;2022-08-01T00:36:59;100381.25;;;18.28;100.00
48210;BME280;33999;52.252;9.616;2022-08-01T00:40:00;100383.81;;;18.29;100.00
48210;BME280;33999;52.252;9.616;2022-08-01T00:43:03;100385.50;;;18.30;100.00
48210;BME280;33999;52.252;9.616;2022-08-01T00:46:05;100382.63;;;18.32;100.00
48210;BME280;33999;52.252;9.616;2022-08-01T00:49:06;100389.94;;;18.31;100.00
48210;BME280;33999;52.252;9.616;2022-08-01T00:52:11;100383.66;;;18.31;100.00
48210;BME280;33999;52.252;9.616;2022-08-01T00:55:13;100394.00;;;18.27;100.00
48210;BME280;33999;52.252;9.616;2022-08-01T00:58:15;100389.41;;;18.28;100.00
48210;BME280;33999;52.252;9.616;2022-08-01T01:01:18;100383.31;;;18.25;100.00
48210;BME280;33999;52.252;9.616;2022-08-01T01:04:22;100375.47;;;18.22;100.00
48210;BME280;33999;52.252;9.616;2022-08-01T01:11:03;100376.50;;;18.21;100.00
48210;BME280;33999;52.252;9.616;2022-08-01T01:14:12;100377.69;;;18.19;100.00
48210;BME280;33999;52.252;9.616;2022-08-01T01:17:17;100381.44;;;18.18;100.00
48210;BME280;33999;52.252;9.616;2022-08-01T01:20:43;100375.47;;;18.14;100.00
48210;BME280;33999;52.252;9.616;2022-08-01T01:23:57;100382.44;;;18.17;100.00
48210;BME280;33999;52.252;9.616;2022-08-01T01:27:12;100389.75;;;18.16;100.00
48210;BME280;33999;52.252;9.616;2022-08-01T01:30:24;100383.63;;;18.14;100.00
48210;BME280;33999;52.252;9.616;2022-08-01T01:33:28;100387.88;;;18.17;100.00
48210;BME280;33999;52.252;9.616;2022-08-01T01:36:32;100389.91;;;18.15;100.00
48210;BME280;33999;52.252;9.616;2022-08-01T01:39:36;100383.97;;;18.11;100.00
48210;BME280;33999;52.252;9.616;2022-08-01T01:42:46;100389.06;;;18.14;100.00
48210;BME280;33999;52.252;9.616;2022-08-01T01:45:49;100391.09;;;18.12;100.00
48210;BME280;33999;52.252;9.616;2022-08-01T01:48:55;100397.22;;;18.14;100.00
48210;BME280;33999;52.252;9.616;2022-08-01T01:51:59;100389.56;;;18.10;100.00
48210;BME280;33999;52.252;9.616;2022-08-01T01:55:05;100391.44;;;18.09;100.00
48210;BME280;33999;52.252;9.616;2022-08-01T01:58:12;100392.50;;;18.08;100.00
48210;BME280;33999;52.252;9.616;2022-08-01T02:01:15;100391.78;;;18.06;100.00
48210;BME280;33999;52.252;9.616;2022-08-01T02:04:42;100385.88;;;18.02;100.00
48210;BME280;33999;52.252;9.616;2022-08-01T02:07:44;100385.00;;;18.02;100.00
48210;BME280;33999;52.252;9.616;2022-08-01T02:10:51;100394.16;;;18.01;100.00
48210;BME280;33999;52.252;9.616;2022-08-01T02:14:14;100386.72;;;18.03;100.00
48210;BME280;33999;52.252;9.616;2022-08-01T02:17:18;100382.28;;;18.02;100.00
48210;BME280;33999;52.252;9.616;2022-08-01T02:20:21;100392.50;;;18.00;100.00
48210;BME280;33999;52.252;9.616;2022-08-01T02:23:24;100381.78;;;17.98;100.00
48210;BME280;33999;52.252;9.616;2022-08-01T02:26:29;100391.59;;;17.99;100.00
48210;BME280;33999;52.252;9.616;2022-08-01T02:29:53;100399.94;;;17.98;100.00
48210;BME280;33999;52.252;9.616;2022-08-01T02:33:03;100397.22;;;17.98;100.00
48210;BME280;33999;52.252;9.616;2022-08-01T02:36:07;100403.66;;;17.97;100.00
48210;BME280;33999;52.252;9.616;2022-08-01T02:39:30;100399.75;;;17.99;100.00
48210;BME280;33999;52.252;9.616;2022-08-01T02:42:34;100399.41;;;17.94;100.00
48210;BME280;33999;52.252;9.616;2022-08-01T02:45:43;100401.28;;;17.94;100.00
48210;BME280;33999;52.252;9.616;2022-08-01T02:48:46;100400.59;;;17.92;100.00
48210;BME280;33999;52.252;9.616;2022-08-01T02:51:50;100404.84;;;17.94;100.00
48210;BME280;33999;52.252;9.616;2022-08-01T02:54:55;100404.19;;;17.92;100.00
48210;BME280;33999;52.252;9.616;2022-08-01T02:57:58;100406.91;;;17.92;100.00
48210;BME280;33999;52.252;9.616;2022-08-01T03:01:02;100416.75;;;17.93;100.00
48210;BME280;33999;52.252;9.616;2022-08-01T03:04:05;100412.34;;;17.92;100.00
48210;BME280;33999;52.252;9.616;2022-08-01T03:07:09;100415.22;;;17.91;100.00
48210;BME280;33999;52.252;9.616;2022-08-01T03:10:14;100419.81;;;17.90;100.00
48210;BME280;33999;52.252;9.616;2022-08-01T03:13:17;100419.28;;;17.87;100.00
48210;BME280;33999;52.252;9.616;2022-08-01T03:16:22;100427.28;;;17.88;100.00
48210;BME280;33999;52.252;9.616;2022-08-01T03:19:26;100419.97;;;17.89;100.00
48210;BME280;33999;52.252;9.616;2022-08-01T03:22:31;100418.44;;;17.86;100.00
48210;BME280;33999;52.252;9.616;2022-08-01T03:25:38;100420.31;;;17.86;100.00
48210;BME280;33999;52.252;9.616;2022-08-01T03:28:41;100430.34;;;17.85;100.00
48210;BME280;33999;52.252;9.616;2022-08-01T03:31:46;100437.78;;;17.83;100.00
48210;BME280;33999;52.252;9.616;2022-08-01T03:34:49;100436.38;;;17.79;100.00
48210;BME280;33999;52.252;9.616;2022-08-01T03:37:53;100435.88;;;17.75;100.00
48210;BME280;33999;52.252;9.616;2022-08-01T03:41:19;100439.78;;;17.73;100.00
48210;BME280;33999;52.252;9.616;2022-08-01T03:44:23;100443.50;;;17.72;100.00
48210;BME280;33999;52.252;9.616;2022-08-01T03:47:30;100443.66;;;17.70;100.00
48210;BME280;33999;52.252;9.616;2022-08-01T03:50:33;100438.09;;;17.72;100.00
48210;BME280;33999;52.252;9.616;2022-08-01T03:53:36;100444.16;;;17.66;100.00
48210;BME280;33999;52.252;9.616;2022-08-01T03:56:43;100447.56;;;17.68;100.00
48210;BME280;33999;52.252;9.616;2022-08-01T03:59:48;100443.16;;;17.67;100.00
48210;BME280;33999;52.252;9.616;2022-08-01T04:02:50;100445.88;;;17.67;100.00
48210;BME280;33999;52.252;9.616;2022-08-01T04:05:52;100455.34;;;17.63;100.00
48210;BME280;33999;52.252;9.616;2022-08-01T04:08:54;100454.31;;;17.64;100.00
48210;BME280;33999;52.252;9.616;2022-08-01T04:11:59;100456.19;;;17.63;100.00
48210;BME280;33999;52.252;9.616;2022-08-01T04:15:10;100466.22;;;17.63;100.00
48210;BME280;33999;52.252;9.616;2022-08-01T04:18:12;100463.66;;;17.61;100.00
48210;BME280;33999;52.252;9.616;2022-08-01T04:21:14;100464.53;;;17.62;100.00
48210;BME280;33999;52.252;9.616;2022-08-01T04:24:20;100465.19;;;17.64;100.00
48210;BME280;33999;52.252;9.616;2022-08-01T04:27:32;100470.97;;;17.60;100.00
48210;BME280;33999;52.252;9.616;2022-08-01T04:30:55;100475.22;;;17.63;100.00
48210;BME280;33999;52.252;9.616;2022-08-01T04:34:04;100480.50;;;17.65;100.00
48210;BME280;33999;52.252;9.616;2022-08-01T04:37:10;100478.63;;;17.65;100.00
48210;BME280;33999;52.252;9.616;2022-08-01T04:40:14;100493.88;;;17.66;100.00
48210;BME280;33999;52.252;9.616;2022-08-01T04:43:19;100491.19;;;17.66;100.00
48210;BME280;33999;52.252;9.616;2022-08-01T04:46:22;100492.19;;;17.65;100.00
48210;BME280;33999;52.252;9.616;2022-08-01T04:49:23;100487.47;;;17.67;100.00
48210;BME280;33999;52.252;9.616;2022-08-01T04:52:35;100500.88;;;17.69;100.00
48210;BME280;33999;52.252;9.616;2022-08-01T04:55:37;100500.03;;;17.68;100.00
48210;BME280;33999;52.252;9.616;2022-08-01T04:58:40;100506.16;;;17.70;100.00
48210;BME280;33999;52.252;9.616;2022-08-01T05:01:42;100507.84;;;17.71;100.00
48210;BME280;33999;52.252;9.616;2022-08-01T05:04:45;100509.22;;;17.75;100.00
48210;BME280;33999;52.252;9.616;2022-08-01T05:07:47;100510.41;;;17.73;100.00
48210;BME280;33999;52.252;9.616;2022-08-01T05:10:48;100515.97;;;17.71;100.00
48210;BME280;33999;52.252;9.616;2022-08-01T05:13:50;100512.28;;;17.72;100.00
48210;BME280;33999;52.252;9.616;2022-08-01T05:16:52;100511.09;;;17.75;100.00
48210;BME280;33999;52.252;9.616;2022-08-01T05:19:54;100518.56;;;17.73;100.00
48210;BME280;33999;52.252;9.616;2022-08-01T05:22:56;100522.44;;;17.70;100.00
48210;BME280;33999;52.252;9.616;2022-08-01T05:25:58;100529.09;;;17.76;100.00
48210;BME280;33999;52.252;9.616;2022-08-01T05:29:00;100524.69;;;17.75;100.00
48210;BME280;33999;52.252;9.616;2022-08-01T05:32:02;100522.13;;;17.73;100.00
48210;BME280;33999;52.252;9.616;2022-08-01T05:35:05;100529.09;;;17.76;100.00
48210;BME280;33999;52.252;9.616;2022-08-01T05:38:07;100523.66;;;17.76;100.00
48210;BME280;33999;52.252;9.616;2022-08-01T05:41:14;100518.06;;;17.77;100.00
48210;BME280;33999;52.252;9.616;2022-08-01T05:44:16;100532.03;;;17.83;100.00
48210;BME280;33999;52.252;9.616;2022-08-01T05:47:17;100527.13;;;17.86;100.00
48210;BME280;33999;52.252;9.616;2022-08-01T05:50:19;100531.38;;;17.89;100.00
48210;BME280;33999;52.252;9.616;2022-08-01T05:53:21;100535.81;;;17.90;100.00
48210;BME280;33999;52.252;9.616;2022-08-01T05:56:23;100534.78;;;17.91;100.00
48210;BME280;33999;52.252;9.616;2022-08-01T05:59:25;100534.09;;;17.89;100.00
48210;BME280;33999;52.252;9.616;2022-08-01T06:02:27;100536.31;;;17.93;100.00
48210;BME280;33999;52.252;9.616;2022-08-01T06:05:29;100530.72;;;17.95;100.00
48210;BME280;33999;52.252;9.616;2022-08-01T06:08:31;100543.66;;;18.01;100.00
48210;BME280;33999;52.252;9.616;2022-08-01T06:11:33;100546.22;;;18.02;100.00
48210;BME280;33999;52.252;9.616;2022-08-01T06:14:34;100546.72;;;18.06;100.00
48210;BME280;33999;52.252;9.616;2022-08-01T06:17:36;100559.81;;;18.11;100.00
48210;BME280;33999;52.252;9.616;2022-08-01T06:20:38;100556.25;;;18.10;100.00
48210;BME280;33999;52.252;9.616;2022-08-01T06:23:39;100564.22;;;18.12;100.00
48210;BME280;33999;52.252;9.616;2022-08-01T06:26:42;100562.91;;;18.16;100.00
48210;BME280;33999;52.252;9.616;2022-08-01T06:29:44;100575.66;;;18.15;100.00
48210;BME280;33999;52.252;9.616;2022-08-01T06:32:54;100570.22;;;18.15;100.00
48210;BME280;33999;52.252;9.616;2022-08-01T06:36:01;100573.78;;;18.16;100.00
48210;BME280;33999;52.252;9.616;2022-08-01T06:39:03;100579.72;;;18.19;100.00
48210;BME280;33999;52.252;9.616;2022-08-01T06:42:04;100581.44;;;18.20;100.00
48210;BME280;33999;52.252;9.616;2022-08-01T06:45:11;100575.47;;;18.25;100.00
48210;BME280;33999;52.252;9.616;2022-08-01T06:48:13;100580.06;;;18.24;100.00
48210;BME280;33999;52.252;9.616;2022-08-01T06:51:14;100581.94;;;18.24;100.00
48210;BME280;33999;52.252;9.616;2022-08-01T06:54:19;100589.91;;;18.17;100.00
48210;BME280;33999;52.252;9.616;2022-08-01T06:57:20;100596.69;;;18.13;100.00
48210;BME280;33999;52.252;9.616;2022-08-01T07:00:24;100595.13;;;18.02;100.00
48210;BME280;33999;52.252;9.616;2022-08-01T07:03:26;100592.88;;;17.90;100.00
48210;BME280;33999;52.252;9.616;2022-08-01T07:06:48;100597.59;;;17.79;100.00
48210;BME280;33999;52.252;9.616;2022-08-01T07:09:50;100602.06;;;17.71;100.00
48210;BME280;33999;52.252;9.616;2022-08-01T07:12:53;100602.06;;;17.71;100.00
48210;BME280;33999;52.252;9.616;2022-08-01T07:15:55;100603.59;;;17.73;100.00
48210;BME280;33999;52.252;9.616;2022-08-01T07:18:56;100608.34;;;17.71;100.00
48210;BME280;33999;52.252;9.616;2022-08-01T07:21:58;100598.19;;;17.73;100.00
48210;BME280;33999;52.252;9.616;2022-08-01T07:25:00;100600.06;;;17.73;100.00
48210;BME280;33999;52.252;9.616;2022-08-01T07:28:02;100598.88;;;17.75;100.00
48210;BME280;33999;52.252;9.616;2022-08-01T07:31:04;100603.84;;;17.80;100.00
48210;BME280;33999;52.252;9.616;2022-08-01T07:34:06;100611.53;;;17.85;100.00
48210;BME280;33999;52.252;9.616;2022-08-01T07:37:08;100613.38;;;17.84;100.00
48210;BME280;33999;52.252;9.616;2022-08-01T07:40:10;100614.63;;;17.90;100.00
48210;BME280;33999;52.252;9.616;2022-08-01T07:43:12;100608.66;;;17.94;100.00
48210;BME280;33999;52.252;9.616;2022-08-01T07:46:15;100615.97;;;17.94;100.00
48210;BME280;33999;52.252;9.616;2022-08-01T07:49:16;100611.75;;;17.99;100.00
48210;BME280;33999;52.252;9.616;2022-08-01T07:52:19;100612.28;;;18.03;100.00
48210;BME280;33999;52.252;9.616;2022-08-01T07:55:21;100616.38;;;18.07;100.00
48210;BME280;33999;52.252;9.616;2022-08-01T07:58:22;100618.44;;;18.13;100.00
48210;BME280;33999;52.252;9.616;2022-08-01T08:01:24;100625.06;;;18.11;100.00
48210;BME280;33999;52.252;9.616;2022-08-01T08:04:27;100631.00;;;18.14;100.00
48210;BME280;33999;52.252;9.616;2022-08-01T08:07:29;100636.78;;;18.11;100.00
48210;BME280;33999;52.252;9.616;2022-08-01T08:10:31;100636.78;;;18.11;100.00
48210;BME280;33999;52.252;9.616;2022-08-01T08:13:32;100641.53;;;18.09;100.00
48210;BME280;33999;52.252;9.616;2022-08-01T08:16:34;100638.81;;;18.09;100.00
48210;BME280;33999;52.252;9.616;2022-08-01T08:19:36;100646.97;;;18.09;100.00
48210;BME280;33999;52.252;9.616;2022-08-01T08:22:40;100642.22;;;18.11;100.00
48210;BME280;33999;52.252;9.616;2022-08-01T08:25:42;100645.44;;;18.15;100.00
48210;BME280;33999;52.252;9.616;2022-08-01T08:28:43;100639.19;;;18.22;100.00
48210;BME280;33999;52.252;9.616;2022-08-01T08:31:45;100643.31;;;18.27;100.00
48210;BME280;33999;52.252;9.616;2022-08-01T08:34:53;100654.38;;;18.33;100.00
48210;BME280;33999;52.252;9.616;2022-08-01T08:37:54;100648.25;;;18.31;100.00
48210;BME280;33999;52.252;9.616;2022-08-01T08:40:59;100656.78;;;18.36;100.00
48210;BME280;33999;52.252;9.616;2022-08-01T08:44:05;100651.34;;;18.44;100.00
48210;BME280;33999;52.252;9.616;2022-08-01T08:47:12;100654.59;;;18.48;100.00
48210;BME280;33999;52.252;9.616;2022-08-01T08:50:20;100656.13;;;18.51;100.00
48210;BME280;33999;52.252;9.616;2022-08-01T08:53:23;100666.00;;;18.52;100.00
48210;BME280;33999;52.252;9.616;2022-08-01T08:56:36;100673.31;;;18.51;100.00
48210;BME280;33999;52.252;9.616;2022-08-01T08:59:39;100676.53;;;18.46;100.00
48210;BME280;33999;52.252;9.616;2022-08-01T09:02:42;100673.97;;;18.45;99.80
48210;BME280;33999;52.252;9.616;2022-08-01T09:05:44;100675.69;;;18.46;98.30
48210;BME280;33999;52.252;9.616;2022-08-01T09:08:47;100682.13;;;18.53;99.45
48210;BME280;33999;52.252;9.616;2022-08-01T09:11:49;100682.34;;;18.60;99.19
48210;BME280;33999;52.252;9.616;2022-08-01T09:14:58;100683.19;;;18.68;98.11
48210;BME280;33999;52.252;9.616;2022-08-01T09:18:00;100693.25;;;18.68;98.39
48210;BME280;33999;52.252;9.616;2022-08-01T09:24:15;100697.50;;;18.71;99.18
48210;BME280;33999;52.252;9.616;2022-08-01T09:27:21;100698.19;;;18.64;98.94
48210;BME280;33999;52.252;9.616;2022-08-01T09:30:25;100702.41;;;18.59;98.82
48210;BME280;33999;52.252;9.616;2022-08-01T09:33:49;100706.63;;;18.53;96.87
48210;BME280;33999;52.252;9.616;2022-08-01T09:39:57;100723.25;;;18.42;98.45
48210;BME280;33999;52.252;9.616;2022-08-01T09:43:12;100726.13;;;18.40;97.95
48210;BME280;33999;52.252;9.616;2022-08-01T09:46:15;100729.38;;;18.44;98.07
48210;BME280;33999;52.252;9.616;2022-08-01T09:49:35;100732.78;;;18.46;97.58
48210;BME280;33999;52.252;9.616;2022-08-01T09:52:55;100729.06;;;18.55;97.36
48210;BME280;33999;52.252;9.616;2022-08-01T09:56:11;100734.38;;;18.65;96.92
48210;BME280;33999;52.252;9.616;2022-08-01T09:59:13;100729.16;;;18.72;95.35
48210;BME280;33999;52.252;9.616;2022-08-01T10:02:38;100740.94;;;18.80;94.91
48210;BME280;33999;52.252;9.616;2022-08-01T10:05:41;100731.44;;;18.84;92.79
48210;BME280;33999;52.252;9.616;2022-08-01T10:08:50;100731.59;;;18.91;93.52
48210;BME280;33999;52.252;9.616;2022-08-01T10:11:52;100736.19;;;18.90;92.55
48210;BME280;33999;52.252;9.616;2022-08-01T10:14:57;100741.44;;;18.84;92.98
48210;BME280;33999;52.252;9.616;2022-08-01T10:18:01;100741.63;;;18.82;93.07
48210;BME280;33999;52.252;9.616;2022-08-01T10:21:17;100732.53;;;18.74;92.00
48210;BME280;33999;52.252;9.616;2022-08-01T10:24:40;100741.56;;;18.74;92.13
48210;BME280;33999;52.252;9.616;2022-08-01T10:27:42;100740.44;;;18.77;93.43
48210;BME280;33999;52.252;9.616;2022-08-01T10:30:47;100743.03;;;18.95;94.13
48210;BME280;33999;52.252;9.616;2022-08-01T10:33:50;100737.75;;;19.09;93.46
48210;BME280;33999;52.252;9.616;2022-08-01T10:36:54;100745.44;;;19.14;92.36
48210;BME280;33999;52.252;9.616;2022-08-01T10:39:56;100745.09;;;19.17;91.77
48210;BME280;33999;52.252;9.616;2022-08-01T10:43:18;100742.03;;;19.12;92.15
48210;BME280;33999;52.252;9.616;2022-08-01T10:46:22;100748.00;;;19.07;91.12
48210;BME280;33999;52.252;9.616;2022-08-01T10:49:29;100746.75;;;19.02;91.11
48210;BME280;33999;52.252;9.616;2022-08-01T10:52:32;100743.38;;;19.00;91.42
48210;BME280;33999;52.252;9.616;2022-08-01T10:56:04;100742.50;;;18.99;91.24
48210;BME280;33999;52.252;9.616;2022-08-01T10:59:08;100739.13;;;18.97;91.48
48210;BME280;33999;52.252;9.616;2022-08-01T11:02:38;100742.19;;;19.02;91.72
48210;BME280;33999;52.252;9.616;2022-08-01T11:05:51;100746.97;;;19.25;90.19
48210;BME280;33999;52.252;9.616;2022-08-01T11:08:54;100737.31;;;19.47;88.77
48210;BME280;33999;52.252;9.616;2022-08-01T11:12:04;100742.94;;;19.78;86.71
48210;BME280;33999;52.252;9.616;2022-08-01T11:18:30;100737.19;;;20.37;83.14
48210;BME280;33999;52.252;9.616;2022-08-01T11:25:01;100756.78;;;20.57;83.10
48210;BME280;33999;52.252;9.616;2022-08-01T11:31:30;100767.94;;;20.23;81.35
48210;BME280;33999;52.252;9.616;2022-08-01T11:34:55;100774.09;;;20.08;80.91
48210;BME280;33999;52.252;9.616;2022-08-01T11:38:23;100772.22;;;20.01;83.56
48210;BME280;33999;52.252;9.616;2022-08-01T11:41:27;100774.28;;;19.98;83.22
48210;BME280;33999;52.252;9.616;2022-08-01T11:44:57;100772.56;;;20.06;81.93
48210;BME280;33999;52.252;9.616;2022-08-01T11:47:59;100770.34;;;20.17;81.68
48210;BME280;33999;52.252;9.616;2022-08-01T11:51:02;100774.22;;;20.31;80.98
48210;BME280;33999;52.252;9.616;2022-08-01T11:54:04;100765.13;;;20.47;79.52
48210;BME280;33999;52.252;9.616;2022-08-01T11:57:08;100763.28;;;20.56;78.37
48210;BME280;33999;52.252;9.616;2022-08-01T12:03:26;100776.78;;;20.80;77.07
48210;BME280;33999;52.252;9.616;2022-08-01T12:06:34;100771.38;;;20.72;76.14
48210;BME280;33999;52.252;9.616;2022-08-01T12:09:35;100768.00;;;20.62;75.78
48210;BME280;33999;52.252;9.616;2022-08-01T12:12:43;100772.47;;;20.55;76.10
48210;BME280;33999;52.252;9.616;2022-08-01T12:15:45;100770.91;;;20.52;77.25
48210;BME280;33999;52.252;9.616;2022-08-01T12:18:47;100766.66;;;20.58;79.00
48210;BME280;33999;52.252;9.616;2022-08-01T12:22:07;100776.00;;;20.72;77.67
48210;BME280;33999;52.252;9.616;2022-08-01T12:28:12;100772.69;;;20.84;76.58
48210;BME280;33999;52.252;9.616;2022-08-01T12:31:16;100769.50;;;20.73;76.26
48210;BME280;33999;52.252;9.616;2022-08-01T12:34:24;100768.38;;;20.59;76.93
48210;BME280;33999;52.252;9.616;2022-08-01T12:37:26;100771.09;;;20.42;75.78
48210;BME280;33999;52.252;9.616;2022-08-01T12:40:30;100780.00;;;20.36;75.21
48210;BME280;33999;52.252;9.616;2022-08-01T12:43:32;100772.38;;;20.24;76.43
48210;BME280;33999;52.252;9.616;2022-08-01T12:46:35;100777.31;;;20.28;76.33
48210;BME280;33999;52.252;9.616;2022-08-01T12:49:44;100779.69;;;20.31;75.63
48210;BME280;33999;52.252;9.616;2022-08-01T12:52:48;100782.56;;;20.38;75.52
48210;BME280;33999;52.252;9.616;2022-08-01T12:55:51;100774.72;;;20.35;72.44
48210;BME280;33999;52.252;9.616;2022-08-01T12:59:00;100771.13;;;20.34;72.19
48210;BME280;33999;52.252;9.616;2022-08-01T13:02:08;100775.53;;;20.52;73.63
48210;BME280;33999;52.252;9.616;2022-08-01T13:05:10;100770.38;;;20.65;73.76
48210;BME280;33999;52.252;9.616;2022-08-01T13:08:14;100782.63;;;20.77;71.04
48210;BME280;33999;52.252;9.616;2022-08-01T13:11:16;100781.06;;;20.83;70.35
48210;BME280;33999;52.252;9.616;2022-08-01T13:14:29;100780.16;;;20.99;69.08
48210;BME280;33999;52.252;9.616;2022-08-01T13:17:34;100779.06;;;21.08;69.95
48210;BME280;33999;52.252;9.616;2022-08-01T13:20:41;100777.44;;;21.22;69.40
48210;BME280;33999;52.252;9.616;2022-08-01T13:24:07;100774.28;;;21.33;67.42
48210;BME280;33999;52.252;9.616;2022-08-01T13:27:20;100780.28;;;21.28;69.78
48210;BME280;33999;52.252;9.616;2022-08-01T13:30:25;100782.72;;;21.23;70.17
48210;BME280;33999;52.252;9.616;2022-08-01T13:33:38;100780.81;;;21.32;68.87
48210;BME280;33999;52.252;9.616;2022-08-01T13:36:41;100784.44;;;21.24;68.15
48210;BME280;33999;52.252;9.616;2022-08-01T13:39:49;100779.19;;;21.15;69.82
48210;BME280;33999;52.252;9.616;2022-08-01T13:42:51;100785.50;;;21.15;67.99
48210;BME280;33999;52.252;9.616;2022-08-01T13:45:53;100781.34;;;21.27;67.06
48210;BME280;33999;52.252;9.616;2022-08-01T13:48:55;100776.72;;;21.28;67.37
48210;BME280;33999;52.252;9.616;2022-08-01T13:51:57;100781.50;;;21.26;68.40
48210;BME280;33999;52.252;9.616;2022-08-01T13:54:59;100775.56;;;21.22;66.96
48210;BME280;33999;52.252;9.616;2022-08-01T13:58:02;100770.81;;;21.16;67.77
48210;BME280;33999;52.252;9.616;2022-08-01T14:01:04;100779.72;;;21.10;68.25
48210;BME280;33999;52.252;9.616;2022-08-01T14:04:06;100781.94;;;21.15;68.21
48210;BME280;33999;52.252;9.616;2022-08-01T14:07:08;100784.66;;;21.15;69.00
48210;BME280;33999;52.252;9.616;2022-08-01T14:10:15;100787.56;;;21.13;69.58
48210;BME280;33999;52.252;9.616;2022-08-01T14:13:20;100782.47;;;21.10;70.80
48210;BME280;33999;52.252;9.616;2022-08-01T14:16:24;100782.47;;;21.10;70.42
48210;BME280;33999;52.252;9.616;2022-08-01T14:19:26;100782.78;;;21.15;70.07
48210;BME280;33999;52.252;9.616;2022-08-01T14:22:40;100784.66;;;21.15;69.89
48210;BME280;33999;52.252;9.616;2022-08-01T14:25:41;100781.41;;;21.19;68.32
48210;BME280;33999;52.252;9.616;2022-08-01T14:29:03;100784.97;;;21.20;68.46
48210;BME280;33999;52.252;9.616;2022-08-01T14:32:05;100783.44;;;21.17;66.73
48210;BME280;33999;52.252;9.616;2022-08-01T14:35:08;100783.63;;;21.16;68.27
48210;BME280;33999;52.252;9.616;2022-08-01T14:38:09;100777.84;;;21.11;69.67
48210;BME280;33999;52.252;9.616;2022-08-01T14:41:11;100780.22;;;21.14;70.23
48210;BME280;33999;52.252;9.616;2022-08-01T14:44:13;100784.59;;;21.23;69.27
48210;BME280;33999;52.252;9.616;2022-08-01T14:47:15;100784.22;;;21.26;68.02
48210;BME280;33999;52.252;9.616;2022-08-01T14:50:22;100789.84;;;21.33;69.23
48210;BME280;33999;52.252;9.616;2022-08-01T14:53:25;100786.91;;;21.34;68.99
48210;BME280;33999;52.252;9.616;2022-08-01T14:56:26;100787.28;;;21.31;67.56
48210;BME280;33999;52.252;9.616;2022-08-01T14:59:28;100792.25;;;21.27;66.80
48210;BME280;33999;52.252;9.616;2022-08-01T15:02:30;100791.97;;;21.22;68.17
48210;BME280;33999;52.252;9.616;2022-08-01T15:05:32;100785.13;;;21.18;68.58
48210;BME280;33999;52.252;9.616;2022-08-01T15:08:34;100792.91;;;21.06;69.18
48210;BME280;33999;52.252;9.616;2022-08-01T15:11:36;100796.16;;;21.02;69.32
48210;BME280;33999;52.252;9.616;2022-08-01T15:14:38;100793.28;;;20.95;70.30
48210;BME280;33999;52.252;9.616;2022-08-01T15:17:49;100793.13;;;20.89;70.95
48210;BME280;33999;52.252;9.616;2022-08-01T15:20:53;100788.22;;;20.84;71.13
48210;BME280;33999;52.252;9.616;2022-08-01T15:23:55;100795.91;;;20.80;70.58
48210;BME280;33999;52.252;9.616;2022-08-01T15:26:57;100792.84;;;20.75;70.88
48210;BME280;33999;52.252;9.616;2022-08-01T15:29:58;100786.91;;;20.72;71.54
48210;BME280;33999;52.252;9.616;2022-08-01T15:33:00;100794.25;;;20.71;71.79
48210;BME280;33999;52.252;9.616;2022-08-01T15:36:02;100782.81;;;20.68;72.23
48210;BME280;33999;52.252;9.616;2022-08-01T15:39:04;100796.00;;;20.64;72.06
48210;BME280;33999;52.252;9.616;2022-08-01T15:42:08;100794.59;;;20.68;70.01
48210;BME280;33999;52.252;9.616;2022-08-01T15:45:10;100786.75;;;20.65;70.02
48210;BME280;33999;52.252;9.616;2022-08-01T15:48:34;100783.34;;;20.71;71.13
48210;BME280;33999;52.252;9.616;2022-08-01T15:51:40;100787.72;;;20.80;70.33
48210;BME280;33999;52.252;9.616;2022-08-01T15:54:42;100790.75;;;20.85;67.64
48210;BME280;33999;52.252;9.616;2022-08-01T15:57:44;100787.56;;;20.82;68.52
48210;BME280;33999;52.252;9.616;2022-08-01T16:00:46;100784.13;;;20.80;69.33
48210;BME280;33999;52.252;9.616;2022-08-01T16:03:47;100778.84;;;20.78;69.85
48210;BME280;33999;52.252;9.616;2022-08-01T16:06:49;100782.44;;;20.79;69.68
48210;BME280;33999;52.252;9.616;2022-08-01T16:09:51;100788.91;;;20.78;69.72
48210;BME280;33999;52.252;9.616;2022-08-01T16:12:53;100781.56;;;20.78;68.62
48210;BME280;33999;52.252;9.616;2022-08-01T16:15:54;100778.84;;;20.78;68.53
48210;BME280;33999;52.252;9.616;2022-08-01T16:18:56;100787.91;;;20.79;68.19
48210;BME280;33999;52.252;9.616;2022-08-01T16:21:58;100785.34;;;20.77;68.51
48210;BME280;33999;52.252;9.616;2022-08-01T16:24:59;100786.88;;;20.80;68.33
48210;BME280;33999;52.252;9.616;2022-08-01T16:28:01;100784.66;;;20.75;68.28